createdAt,value
2023-04-21T00:00:11.339Z,16.23
2023-04-21T00:02:41.721Z,13.47
2023-04-21T00:05:12.712Z,15.10
2023-04-21T00:07:41.857Z,15.27
2023-04-21T00:10:13.088Z,16.20
2023-04-21T00:12:41.919Z,16.43
2023-04-21T00:15:12.913Z,15.73
2023-04-21T00:17:41.849Z,15.53
2023-04-21T00:20:12.204Z,13.77
2023-04-21T00:22:40.893Z,14.07
2023-04-21T00:25:10.500Z,14.53
2023-04-21T00:27:39.233Z,13.03
2023-04-21T00:30:09.823Z,12.33
2023-04-21T00:32:40.531Z,12.47
2023-04-21T00:35:11.057Z,13.30
2023-04-21T00:37:41.727Z,12.33
2023-04-21T00:40:13.808Z,12.53
2023-04-21T00:42:42.918Z,12.10
2023-04-21T00:45:12.602Z,12.33
2023-04-21T00:47:42.909Z,12.30
2023-04-21T00:50:14.185Z,12.60
2023-04-21T00:52:47.086Z,12.00
2023-04-21T00:55:16.967Z,11.77
2023-04-21T00:57:46.314Z,11.27
2023-04-21T01:00:16.741Z,11.73
2023-04-21T01:02:47.302Z,11.17
2023-04-21T01:05:18.295Z,10.67
2023-04-21T01:07:47.220Z,10.40
2023-04-21T01:10:16.258Z,10.27
2023-04-21T01:12:49.053Z,10.50
2023-04-21T01:15:19.088Z,11.63
2023-04-21T01:17:49.986Z,11.20
2023-04-21T01:20:18.767Z,12.03
2023-04-21T01:22:51.295Z,11.83
2023-04-21T01:25:22.824Z,11.23
2023-04-21T01:27:52.176Z,11.23
2023-04-21T01:30:23.276Z,10.80
2023-04-21T01:32:53.152Z,10.80
2023-04-21T01:35:22.293Z,11.13
2023-04-21T01:37:52.358Z,10.17
2023-04-21T01:40:21.613Z,11.17
2023-04-21T01:42:50.356Z,11.27
2023-04-21T01:45:19.030Z,11.10
2023-04-21T01:47:47.806Z,11.20
2023-04-21T01:50:16.668Z,10.23
2023-04-21T01:52:45.439Z,10.60
2023-04-21T01:55:15.994Z,10.83
2023-04-21T01:57:44.711Z,11.30
2023-04-21T02:00:15.184Z,12.00
2023-04-21T02:02:44.060Z,10.17
2023-04-21T02:05:15.079Z,10.67
2023-04-21T02:07:43.862Z,11.70
2023-04-21T02:10:14.275Z,10.50
2023-04-21T02:12:45.258Z,10.30
2023-04-21T02:15:14.186Z,10.67
2023-04-21T02:17:45.028Z,10.50
2023-04-21T02:20:14.581Z,10.77
2023-04-21T02:22:43.336Z,11.67
2023-04-21T02:25:12.217Z,10.80
2023-04-21T02:27:42.700Z,10.40
2023-04-21T02:30:12.087Z,10.07
2023-04-21T02:32:41.059Z,10.03
2023-04-21T02:35:10.918Z,10.63
2023-04-21T02:37:39.803Z,10.10
2023-04-21T02:40:10.606Z,9.63
2023-04-21T02:42:39.317Z,9.80
2023-04-21T02:45:12.374Z,9.97
2023-04-21T02:47:41.157Z,9.00
2023-04-21T02:50:11.036Z,9.83
2023-04-21T02:52:39.949Z,10.30
2023-04-21T02:55:09.873Z,9.90
2023-04-21T02:57:38.670Z,9.90
2023-04-21T03:00:14.028Z,9.97
2023-04-21T03:02:43.142Z,10.47
2023-04-21T03:05:12.783Z,10.90
2023-04-21T03:07:41.388Z,10.60
2023-04-21T03:10:10.284Z,10.53
2023-04-21T03:12:39.064Z,10.27
2023-04-21T03:15:10.215Z,9.70
2023-04-21T03:17:39.820Z,9.60
2023-04-21T03:20:10.873Z,9.93
2023-04-21T03:22:40.457Z,9.67
2023-04-21T03:25:09.445Z,9.37
2023-04-21T03:27:38.396Z,9.47
2023-04-21T03:30:10.475Z,9.80
2023-04-21T03:32:39.158Z,9.07
2023-04-21T03:35:08.361Z,9.60
2023-04-21T03:37:37.086Z,10.23
2023-04-21T03:40:08.674Z,9.47
2023-04-21T03:42:37.700Z,8.93
2023-04-21T03:45:10.827Z,9.23
2023-04-21T03:47:39.669Z,8.67
2023-04-21T03:50:10.173Z,9.77
2023-04-21T03:52:39.683Z,9.80
2023-04-21T03:55:11.923Z,9.13
2023-04-21T03:57:42.208Z,9.90
2023-04-21T04:00:14.922Z,9.20
2023-04-21T04:02:43.999Z,10.17
2023-04-21T04:05:13.280Z,9.60
2023-04-21T04:07:43.009Z,9.43
2023-04-21T04:10:12.228Z,9.90
2023-04-21T04:12:41.205Z,8.93
2023-04-21T04:15:12.375Z,9.57
2023-04-21T04:17:43.484Z,9.87
2023-04-21T04:20:13.073Z,9.53
2023-04-21T04:22:41.943Z,9.83
2023-04-21T04:25:12.856Z,10.07
2023-04-21T04:27:41.751Z,9.57
2023-04-21T04:30:16.374Z,12.37
2023-04-21T04:32:45.770Z,10.27
2023-04-21T04:35:15.547Z,10.03
2023-04-21T04:37:45.637Z,10.80
2023-04-21T04:40:19.760Z,9.93
2023-04-21T04:42:49.015Z,9.70
2023-04-21T04:45:22.275Z,9.70
2023-04-21T04:47:51.635Z,9.57
2023-04-21T04:50:20.457Z,10.50
2023-04-21T04:52:58.821Z,10.43
2023-04-21T04:55:42.258Z,10.50
2023-04-21T04:58:16.233Z,10.57
2023-04-21T05:00:56.660Z,9.63
2023-04-21T05:03:32.341Z,9.70
2023-04-21T05:06:03.654Z,9.40
2023-04-21T05:09:08.560Z,9.90
2023-04-21T05:12:21.636Z,8.87
2023-04-21T05:15:07.617Z,9.07
2023-04-21T05:17:41.408Z,11.93
2023-04-21T05:20:14.997Z,12.03
2023-04-21T05:22:50.078Z,11.13
2023-04-21T05:25:23.306Z,11.30
2023-04-21T05:27:54.030Z,10.30
2023-04-21T05:30:25.872Z,11.03
2023-04-21T05:32:55.915Z,11.07
2023-04-21T05:35:24.788Z,10.03
2023-04-21T05:37:53.872Z,10.00
2023-04-21T05:40:23.304Z,11.50
2023-04-21T05:42:52.686Z,9.43
2023-04-21T05:45:22.054Z,11.03
2023-04-21T05:47:51.342Z,10.43
2023-04-21T05:50:21.891Z,9.50
2023-04-21T05:52:50.859Z,11.33
2023-04-21T05:55:19.972Z,10.90
2023-04-21T05:57:49.116Z,10.20
2023-04-21T06:00:19.501Z,14.30
2023-04-21T06:02:48.876Z,12.07
2023-04-21T06:05:17.895Z,11.23
2023-04-21T06:07:48.184Z,12.13
2023-04-21T06:10:17.251Z,13.90
2023-04-21T06:12:46.166Z,12.90
2023-04-21T06:15:14.908Z,11.97
2023-04-21T06:17:43.672Z,13.43
2023-04-21T06:20:13.784Z,12.60
2023-04-21T06:22:42.427Z,13.17
2023-04-21T06:25:12.741Z,11.07
2023-04-21T06:27:41.454Z,9.80
2023-04-21T06:30:11.110Z,11.07
2023-04-21T06:32:39.876Z,11.20
2023-04-21T06:35:09.608Z,12.23
2023-04-21T06:37:38.559Z,12.07
2023-04-21T06:40:08.799Z,11.83
2023-04-21T06:42:38.899Z,15.13
2023-04-21T06:45:10.822Z,22.30
2023-04-21T06:47:39.731Z,21.27
2023-04-21T06:50:10.139Z,21.37
2023-04-21T06:52:38.818Z,21.60
2023-04-21T06:55:09.085Z,33.47
2023-04-21T06:57:39.154Z,37.03
2023-04-21T07:00:09.763Z,37.70
2023-04-21T07:02:38.530Z,26.60
2023-04-21T07:05:08.188Z,17.90
2023-04-21T07:07:36.893Z,15.10
2023-04-21T07:10:06.264Z,12.20
2023-04-21T07:12:34.982Z,10.53
2023-04-21T07:15:05.945Z,8.07
2023-04-21T07:17:34.666Z,7.77
2023-04-21T07:20:03.814Z,9.60
2023-04-21T07:22:32.453Z,11.53
2023-04-21T07:25:02.232Z,11.90
2023-04-21T07:27:30.954Z,13.20
2023-04-21T07:30:00.029Z,11.27
2023-04-21T07:32:30.207Z,13.63
2023-04-21T07:34:58.945Z,8.83
2023-04-21T07:37:27.615Z,11.60
2023-04-21T07:39:56.280Z,13.90
2023-04-21T07:42:26.821Z,8.17
2023-04-21T07:44:56.191Z,11.00
2023-04-21T07:47:25.069Z,12.67
2023-04-21T07:49:55.228Z,5.70
2023-04-21T07:52:24.414Z,8.73
2023-04-21T07:54:53.638Z,13.93
2023-04-21T07:57:22.365Z,6.83
2023-04-21T07:59:51.320Z,7.10
2023-04-21T08:02:20.170Z,8.07
2023-04-21T08:04:49.063Z,5.37
2023-04-21T08:07:19.285Z,4.07
2023-04-21T08:09:47.962Z,7.70
2023-04-21T08:12:16.684Z,4.70
2023-04-21T08:14:45.478Z,5.93
2023-04-21T08:20:00.058Z,8.67
2023-04-21T08:22:30.161Z,9.80
2023-04-21T08:24:58.871Z,5.13
2023-04-21T08:27:27.602Z,7.10
2023-04-21T08:29:56.327Z,8.60
2023-04-21T08:32:26.545Z,3.67
2023-04-21T08:34:56.544Z,11.60
2023-04-21T08:37:25.250Z,9.53
2023-04-21T08:39:55.368Z,9.83
2023-04-21T08:42:24.055Z,3.50
2023-04-21T08:44:52.776Z,10.80
2023-04-21T08:47:25.457Z,9.27
2023-04-21T08:49:54.626Z,7.60
2023-04-21T08:52:23.390Z,7.93
2023-04-21T08:54:53.328Z,3.23
2023-04-21T08:57:23.410Z,9.37
2023-04-21T08:59:52.095Z,10.87
2023-04-21T09:02:21.122Z,8.40
2023-04-21T09:04:52.499Z,6.50
2023-04-21T09:07:36.063Z,11.17
2023-04-21T09:10:07.196Z,9.10
2023-04-21T09:12:40.876Z,7.13
2023-04-21T09:15:12.859Z,7.30
2023-04-21T09:17:41.555Z,6.13
2023-04-21T09:20:17.655Z,12.93
2023-04-21T09:22:47.233Z,6.93
2023-04-21T09:25:20.423Z,5.00
2023-04-21T09:27:50.573Z,3.23
2023-04-21T09:30:22.763Z,3.23
2023-04-21T09:32:51.662Z,3.27
2023-04-21T09:35:20.668Z,3.10
2023-04-21T09:37:49.369Z,3.17
2023-04-21T09:40:20.234Z,2.97
2023-04-21T09:42:50.755Z,4.60
2023-04-21T09:47:56.779Z,3.00
2023-04-21T09:51:03.699Z,2.87
2023-04-21T09:53:18.129Z,2.70
2023-04-21T09:55:52.915Z,2.50
2023-04-21T09:58:28.710Z,2.40
2023-04-21T10:00:59.675Z,2.87
2023-04-21T10:03:30.376Z,2.73
2023-04-21T10:05:59.793Z,2.40
2023-04-21T10:08:29.265Z,2.97
2023-04-21T10:10:58.950Z,2.50
2023-04-21T10:13:30.021Z,2.40
2023-04-21T10:16:08.102Z,2.47
2023-04-21T10:18:39.465Z,2.43
2023-04-21T10:21:10.735Z,2.20
2023-04-21T10:23:43.505Z,2.43
2023-04-21T10:26:16.411Z,2.50
2023-04-21T10:28:57.645Z,2.53
2023-04-21T10:31:33.103Z,2.47
2023-04-21T10:34:19.513Z,2.58
2023-04-21T10:37:19.752Z,2.78
2023-04-21T10:39:56.053Z,2.28
2023-04-21T10:42:37.110Z,2.40
2023-04-21T10:45:14.301Z,2.97
2023-04-21T10:47:49.229Z,2.70
2023-04-21T10:50:27.000Z,2.50
2023-04-21T10:53:00.461Z,2.65
2023-04-21T10:55:31.362Z,2.38
2023-04-21T10:58:04.542Z,2.80
2023-04-21T11:00:35.047Z,2.78
2023-04-21T11:03:06.343Z,2.70
2023-04-21T11:05:41.012Z,2.72
2023-04-21T11:08:14.090Z,2.40
2023-04-21T11:10:55.784Z,2.58
2023-04-21T11:13:27.036Z,2.60
2023-04-21T11:16:03.748Z,2.60
2023-04-21T11:18:43.792Z,2.70
2023-04-21T11:21:21.553Z,2.40
2023-04-21T11:23:54.380Z,3.00
2023-04-21T11:26:34.862Z,2.95
2023-04-21T11:29:06.097Z,2.50
2023-04-21T11:31:37.609Z,2.53
2023-04-21T11:34:07.468Z,2.42
2023-04-21T11:36:36.660Z,2.20
2023-04-21T11:39:10.130Z,2.75
2023-04-21T11:41:42.207Z,2.40
2023-04-21T11:44:12.047Z,2.42
2023-04-21T11:46:46.969Z,2.85
2023-04-21T11:49:18.519Z,2.55
2023-04-21T11:51:47.604Z,2.30
2023-04-21T11:54:22.081Z,2.55
2023-04-21T11:56:51.141Z,2.85
2023-04-21T11:59:26.040Z,2.55
2023-04-21T12:01:57.210Z,2.42
2023-04-21T12:04:27.593Z,2.25
2023-04-21T12:07:01.555Z,2.80
2023-04-21T12:09:31.376Z,2.80
2023-04-21T12:12:02.706Z,2.55
2023-04-21T12:14:34.921Z,2.72
2023-04-21T12:17:08.326Z,2.55
2023-04-21T12:19:39.675Z,2.65
2023-04-21T12:22:10.333Z,2.90
2023-04-21T12:24:39.813Z,2.80
2023-04-21T12:27:09.415Z,2.50
2023-04-21T12:29:38.729Z,2.50
2023-04-21T12:32:10.308Z,2.28
2023-04-21T12:34:39.259Z,2.70
2023-04-21T12:37:09.075Z,2.40
2023-04-21T12:39:37.918Z,2.50
2023-04-21T12:42:06.953Z,2.70
2023-04-21T12:44:35.673Z,2.33
2023-04-21T12:47:04.546Z,2.30
2023-04-21T12:49:34.659Z,2.10
2023-04-21T12:52:05.712Z,2.75
2023-04-21T12:54:34.899Z,2.72
2023-04-21T12:57:04.346Z,2.50
2023-04-21T12:59:33.586Z,2.55
2023-04-21T13:02:02.458Z,2.30
2023-04-21T13:04:32.500Z,2.65
2023-04-21T13:07:02.957Z,2.10
2023-04-21T13:09:33.101Z,2.00
2023-04-21T13:12:04.824Z,2.50
2023-04-21T13:14:34.268Z,2.00
2023-04-21T13:17:03.552Z,2.20
2023-04-21T13:19:33.920Z,2.50
2023-04-21T13:22:05.598Z,2.25
2023-04-21T13:24:34.665Z,2.33
2023-04-21T13:27:03.586Z,2.47
2023-04-21T13:29:34.598Z,2.30
2023-04-21T13:32:04.876Z,2.22
2023-04-21T13:34:36.069Z,2.33
2023-04-21T13:37:22.121Z,2.33
2023-04-21T13:40:10.095Z,2.28
2023-04-21T13:42:40.336Z,2.40
2023-04-21T13:45:14.125Z,2.30
2023-04-21T13:47:43.517Z,2.75
2023-04-21T13:50:12.823Z,2.40
2023-04-21T13:52:43.919Z,2.30
2023-04-21T13:55:13.203Z,2.25
2023-04-21T13:57:42.767Z,2.13
2023-04-21T14:00:15.345Z,2.38
2023-04-21T14:02:47.346Z,2.20
2023-04-21T14:05:16.458Z,2.42
2023-04-21T14:07:47.135Z,2.42
2023-04-21T14:10:20.196Z,2.20
2023-04-21T14:12:53.232Z,2.50
2023-04-21T14:15:24.550Z,2.60
2023-04-21T14:17:56.632Z,2.08
2023-04-21T14:20:26.000Z,2.13
2023-04-21T14:22:57.039Z,2.25
2023-04-21T14:25:35.055Z,2.40
2023-04-21T14:28:07.586Z,2.40
2023-04-21T14:30:37.695Z,2.25
2023-04-21T14:33:08.147Z,2.40
2023-04-21T14:35:39.559Z,2.50
2023-04-21T14:38:10.068Z,2.20
2023-04-21T14:40:38.781Z,2.33
2023-04-21T14:43:07.596Z,2.22
2023-04-21T14:45:36.790Z,2.65
2023-04-21T14:48:06.065Z,2.25
2023-04-21T14:50:35.075Z,2.97
2023-04-21T14:53:04.219Z,2.78
2023-04-21T14:55:35.025Z,2.30
2023-04-21T14:58:04.783Z,2.45
2023-04-21T15:00:35.102Z,2.70
2023-04-21T15:03:04.747Z,2.63
2023-04-21T15:05:34.829Z,2.97
2023-04-21T15:08:05.067Z,2.60
2023-04-21T15:10:35.635Z,2.00
2023-04-21T15:13:05.806Z,2.55
2023-04-21T15:15:35.953Z,2.33
2023-04-21T15:18:05.665Z,2.65
2023-04-21T15:20:44.603Z,2.53
2023-04-21T15:23:15.685Z,2.65
2023-04-21T15:25:46.427Z,2.67
2023-04-21T15:28:15.312Z,2.63
2023-04-21T15:30:44.690Z,2.65
2023-04-21T15:33:13.518Z,2.58
2023-04-21T15:35:43.428Z,2.30
2023-04-21T15:38:12.262Z,2.78
2023-04-21T15:40:53.213Z,2.60
2023-04-21T15:43:33.215Z,2.53
2023-04-21T15:46:03.321Z,2.20
2023-04-21T15:48:32.576Z,2.40
2023-04-21T15:51:01.517Z,2.58
2023-04-21T15:53:31.107Z,2.97
2023-04-21T15:56:00.918Z,2.42
2023-04-21T15:58:31.719Z,2.28
2023-04-21T16:01:00.801Z,2.42
2023-04-21T16:03:31.307Z,2.47
2023-04-21T16:06:00.800Z,2.30
2023-04-21T16:08:30.545Z,2.47
2023-04-21T16:10:59.320Z,2.50
2023-04-21T16:13:28.080Z,2.60
2023-04-21T16:15:58.502Z,2.70
2023-04-21T16:18:28.136Z,2.50
2023-04-21T16:20:57.240Z,2.83
2023-04-21T16:23:26.147Z,2.60
2023-04-21T16:25:55.323Z,2.22
2023-04-21T16:28:24.399Z,2.83
2023-04-21T16:30:53.787Z,2.85
2023-04-21T16:33:24.147Z,2.53
2023-04-21T16:35:54.231Z,2.67
2023-04-21T16:38:24.842Z,2.50
2023-04-21T16:40:53.723Z,2.63
2023-04-21T16:43:22.627Z,2.95
2023-04-21T16:45:51.793Z,3.00
2023-04-21T16:48:20.819Z,2.60
2023-04-21T16:50:54.081Z,2.75
2023-04-21T16:53:25.529Z,2.80
2023-04-21T16:55:54.878Z,2.53
2023-04-21T16:58:24.636Z,2.40
2023-04-21T17:00:54.687Z,3.08
2023-04-21T17:03:23.912Z,3.83
2023-04-21T17:05:54.479Z,3.15
2023-04-21T17:08:24.419Z,5.10
2023-04-21T17:10:55.515Z,4.50
2023-04-21T17:13:24.381Z,4.93
2023-04-21T17:15:55.463Z,5.55
2023-04-21T17:18:24.268Z,5.53
2023-04-21T17:20:54.985Z,5.60
2023-04-21T17:23:23.998Z,5.35
2023-04-21T17:25:53.873Z,5.57
2023-04-21T17:28:24.028Z,5.03
2023-04-21T17:31:00.245Z,5.63
2023-04-21T17:33:36.271Z,5.45
2023-04-21T17:36:10.120Z,5.38
2023-04-21T17:38:43.165Z,6.32
2023-04-21T17:41:20.068Z,5.40
2023-04-21T17:43:49.144Z,5.65
2023-04-21T17:46:18.037Z,5.60
2023-04-21T17:48:47.486Z,5.30
2023-04-21T17:51:19.421Z,5.90
2023-04-21T17:53:50.772Z,5.75
2023-04-21T17:56:25.645Z,6.35
2023-04-21T17:58:56.291Z,5.95
2023-04-21T18:01:25.578Z,5.82
2023-04-21T18:04:49.725Z,5.65
2023-04-21T18:07:28.392Z,5.65
2023-04-21T18:09:59.040Z,5.82
2023-04-21T18:12:28.549Z,5.65
2023-04-21T18:14:57.309Z,5.75
2023-04-21T18:17:27.583Z,5.65
2023-04-21T18:19:56.584Z,5.97
2023-04-21T18:22:28.045Z,6.13
2023-04-21T18:25:00.990Z,6.03
2023-04-21T18:27:34.898Z,6.05
2023-04-21T18:30:22.422Z,6.72
2023-04-21T18:32:53.274Z,7.50
2023-04-21T18:35:23.741Z,7.55
2023-04-21T18:37:55.538Z,6.72
2023-04-21T18:40:28.339Z,6.60
2023-04-21T18:43:27.002Z,6.60
2023-04-21T18:45:58.194Z,6.38
2023-04-21T18:48:29.838Z,7.17
2023-04-21T18:51:00.155Z,6.70
2023-04-21T18:53:33.722Z,7.20
2023-04-21T18:56:03.478Z,7.10
2023-04-21T18:58:32.432Z,25.17
2023-04-21T19:01:27.489Z,7.70
2023-04-21T19:03:56.984Z,7.00
2023-04-21T19:06:26.182Z,8.23
2023-04-21T19:08:58.749Z,9.00
2023-04-21T19:11:29.922Z,9.20
2023-04-21T19:14:00.741Z,10.17
2023-04-21T19:16:31.114Z,10.50
2023-04-21T19:19:02.380Z,10.10
2023-04-21T19:21:31.208Z,10.90
2023-04-21T19:24:01.348Z,11.83
2023-04-21T19:26:30.230Z,10.80
2023-04-21T19:28:58.963Z,11.30
2023-04-21T19:31:27.830Z,10.47
2023-04-21T19:33:56.562Z,10.63
2023-04-21T19:36:26.277Z,10.40
2023-04-21T19:38:56.608Z,10.73
2023-04-21T19:41:26.908Z,10.93
2023-04-21T19:43:55.711Z,9.77
2023-04-21T19:46:24.879Z,9.73
2023-04-21T19:48:53.787Z,11.40
2023-04-21T19:51:23.834Z,11.00
2023-04-21T19:54:10.043Z,11.40
2023-04-21T19:56:41.724Z,11.90
2023-04-21T19:59:10.447Z,12.90
2023-04-21T20:01:39.683Z,15.17
2023-04-21T20:04:11.033Z,18.00
2023-04-21T20:06:41.634Z,29.60
2023-04-21T20:09:14.775Z,43.10
2023-04-21T20:11:45.219Z,37.30
2023-04-21T20:14:15.284Z,30.87
2023-04-21T20:16:46.189Z,39.63
2023-04-21T20:19:17.448Z,35.87
2023-04-21T20:21:49.099Z,36.93
2023-04-21T20:24:18.027Z,29.43
2023-04-21T20:26:48.254Z,25.43
2023-04-21T20:29:17.331Z,21.73
2023-04-21T20:31:46.462Z,16.73
2023-04-21T20:34:15.193Z,17.77
2023-04-21T20:36:44.866Z,16.90
2023-04-21T20:39:14.436Z,12.83
2023-04-21T20:41:45.764Z,11.43
2023-04-21T20:44:16.910Z,13.07
2023-04-21T20:46:46.099Z,10.03
2023-04-21T20:49:15.178Z,10.63
2023-04-21T20:51:43.812Z,9.60
2023-04-21T20:54:12.519Z,12.80
2023-04-21T20:56:41.310Z,9.40
2023-04-21T20:59:10.102Z,10.57
2023-04-21T21:01:41.421Z,10.53
2023-04-21T21:04:10.250Z,10.27
2023-04-21T21:06:39.572Z,10.80
2023-04-21T21:09:09.021Z,10.07
2023-04-21T21:11:37.826Z,10.17
2023-04-21T21:14:06.540Z,10.17
2023-04-21T21:16:35.372Z,9.70
2023-04-21T21:19:05.579Z,9.10
2023-04-21T21:21:34.322Z,9.23
2023-04-21T21:24:03.071Z,8.30
2023-04-21T21:26:31.832Z,8.60
2023-04-21T21:29:00.536Z,8.40
2023-04-21T21:31:29.640Z,8.23
2023-04-21T21:33:59.008Z,8.17
2023-04-21T21:36:29.327Z,12.70
2023-04-21T21:38:58.017Z,13.43
2023-04-21T21:41:26.784Z,9.27
2023-04-21T21:43:55.477Z,9.77
2023-04-21T21:46:24.431Z,11.57
2023-04-21T21:48:53.247Z,11.60
2023-04-21T21:51:22.044Z,10.80
2023-04-21T21:53:52.172Z,9.87
2023-04-21T21:56:21.468Z,9.60
2023-04-21T21:58:50.239Z,9.73
2023-04-21T22:01:19.270Z,9.90
2023-04-21T22:03:48.411Z,10.70
2023-04-21T22:06:18.813Z,10.30
2023-04-21T22:08:47.642Z,10.40
2023-04-21T22:11:17.923Z,11.47
2023-04-21T22:13:46.800Z,13.20
2023-04-21T22:16:16.616Z,11.83
2023-04-21T22:18:47.261Z,9.90
2023-04-21T22:21:16.156Z,9.23
2023-04-21T22:23:45.116Z,10.70
2023-04-21T22:26:13.910Z,12.03
2023-04-21T22:28:44.050Z,11.17
2023-04-21T22:31:12.915Z,9.10
2023-04-21T22:33:41.707Z,10.37
2023-04-21T22:36:12.571Z,9.73
2023-04-21T22:38:43.623Z,13.53
2023-04-21T22:41:12.499Z,12.07
2023-04-21T22:43:41.314Z,10.47
2023-04-21T22:46:11.793Z,12.30
2023-04-21T22:48:40.590Z,11.30
2023-04-21T22:51:09.330Z,15.13
2023-04-21T22:53:38.021Z,17.33
2023-04-21T22:56:07.610Z,20.67
2023-04-21T22:58:36.368Z,15.07
2023-04-21T23:01:05.176Z,17.17
2023-04-21T23:03:35.697Z,17.63
2023-04-21T23:06:04.714Z,28.47
2023-04-21T23:08:33.479Z,20.50
2023-04-21T23:11:04.211Z,37.07
2023-04-21T23:13:33.767Z,31.70
2023-04-21T23:16:02.673Z,30.63
2023-04-21T23:18:31.439Z,36.60
2023-04-21T23:21:01.724Z,40.63
2023-04-21T23:23:30.579Z,26.47
2023-04-21T23:25:59.369Z,24.07
2023-04-21T23:28:28.253Z,26.80
2023-04-21T23:30:57.064Z,31.40
2023-04-21T23:33:26.091Z,24.47
2023-04-21T23:35:56.229Z,28.90
2023-04-21T23:38:27.033Z,21.23
2023-04-21T23:40:55.799Z,20.00
2023-04-21T23:43:24.622Z,18.60
2023-04-21T23:45:53.646Z,22.00
2023-04-21T23:48:22.481Z,16.10
2023-04-21T23:50:51.269Z,15.17
2023-04-21T23:53:26.059Z,14.10
2023-04-21T23:55:55.066Z,27.97
2023-04-21T23:58:23.791Z,19.80
